sensor_id;sensor_type;location;lat;lon;timestamp;pressure;altitude;pressure_sealevel;temperature;humidity
21960;BME280;11144;43.030;25.108;2023-05-08T00:00:56;99296.06;;;12.76;100.00
21960;BME280;11144;43.030;25.108;2023-05-08T00:02:30;99290.81;;;12.75;100.00
21960;BME280;11144;43.030;25.108;2023-05-08T00:04:03;99295.78;;;12.82;100.00
21960;BME280;11144;43.030;25.108;2023-05-08T00:05:40;99287.16;;;12.77;100.00
21960;BME280;11144;43.030;25.108;2023-05-08T00:07:13;99291.16;;;12.67;100.00
21960;BME280;11144;43.030;25.108;2023-05-08T00:08:46;99299.25;;;12.64;100.00
21960;BME280;11144;43.030;25.108;2023-05-08T00:10:19;99301.09;;;12.62;100.00
21960;BME280;11144;43.030;25.108;2023-05-08T00:11:53;99293.28;;;12.59;100.00
21960;BME280;11144;43.030;25.108;2023-05-08T00:13:27;99282.84;;;12.56;100.00
21960;BME280;11144;43.030;25.108;2023-05-08T00:15:00;99286.81;;;12.46;100.00
21960;BME280;11144;43.030;25.108;2023-05-08T00:16:32;99292.84;;;12.30;100.00
21960;BME280;11144;43.030;25.108;2023-05-08T00:18:05;99287.81;;;12.24;100.00
21960;BME280;11144;43.030;25.108;2023-05-08T00:19:39;99288.91;;;12.18;100.00
21960;BME280;11144;43.030;25.108;2023-05-08T00:21:11;99289.84;;;12.17;100.00
21960;BME280;11144;43.030;25.108;2023-05-08T00:22:44;99278.44;;;12.15;100.00
21960;BME280;11144;43.030;25.108;2023-05-08T00:24:17;99285.81;;;12.09;100.00
21960;BME280;11144;43.030;25.108;2023-05-08T00:25:50;99285.22;;;12.02;100.00
21960;BME280;11144;43.030;25.108;2023-05-08T00:27:24;99283.88;;;11.92;100.00
21960;BME280;11144;43.030;25.108;2023-05-08T00:28:57;99287.22;;;11.97;100.00
21960;BME280;11144;43.030;25.108;2023-05-08T00:30:31;99294.22;;;11.98;100.00
21960;BME280;11144;43.030;25.108;2023-05-08T00:32:03;99295.94;;;11.99;100.00
21960;BME280;11144;43.030;25.108;2023-05-08T00:33:36;99295.81;;;12.02;100.00
21960;BME280;11144;43.030;25.108;2023-05-08T00:35:10;99293.81;;;12.07;100.00
21960;BME280;11144;43.030;25.108;2023-05-08T00:36:43;99293.81;;;12.07;100.00
21960;BME280;11144;43.030;25.108;2023-05-08T00:38:16;99294.75;;;12.06;100.00
21960;BME280;11144;43.030;25.108;2023-05-08T00:39:49;99283.50;;;12.01;100.00
21960;BME280;11144;43.030;25.108;2023-05-08T00:41:22;99280.44;;;11.90;100.00
21960;BME280;11144;43.030;25.108;2023-05-08T00:42:56;99295.53;;;11.88;100.00
21960;BME280;11144;43.030;25.108;2023-05-08T00:44:30;99288.63;;;11.84;100.00
21960;BME280;11144;43.030;25.108;2023-05-08T00:46:02;99295.09;;;11.77;100.00
21960;BME280;11144;43.030;25.108;2023-05-08T00:47:36;99289.91;;;11.74;100.00
21960;BME280;11144;43.030;25.108;2023-05-08T00:49:09;99295.22;;;11.74;100.00
21960;BME280;11144;43.030;25.108;2023-05-08T00:50:45;99298.56;;;11.79;100.00
21960;BME280;11144;43.030;25.108;2023-05-08T00:52:18;99299.28;;;11.83;100.00
21960;BME280;11144;43.030;25.108;2023-05-08T00:53:52;99289.03;;;11.75;100.00
21960;BME280;11144;43.030;25.108;2023-05-08T00:55:25;99299.41;;;11.80;100.00
21960;BME280;11144;43.030;25.108;2023-05-08T00:56:59;99309.41;;;11.73;100.00
21960;BME280;11144;43.030;25.108;2023-05-08T00:58:34;99307.97;;;11.65;100.00
21960;BME280;11144;43.030;25.108;2023-05-08T01:00:08;99302.97;;;11.57;100.00
21960;BME280;11144;43.030;25.108;2023-05-08T01:01:43;99306.53;;;11.56;100.00
21960;BME280;11144;43.030;25.108;2023-05-08T01:03:16;99311.03;;;11.54;100.00
21960;BME280;11144;43.030;25.108;2023-05-08T01:04:50;99304.69;;;11.58;100.00
21960;BME280;11144;43.030;25.108;2023-05-08T01:06:24;99308.28;;;11.57;100.00
21960;BME280;11144;43.030;25.108;2023-05-08T01:07:57;99309.91;;;11.61;100.00
21960;BME280;11144;43.030;25.108;2023-05-08T01:09:29;99308.03;;;11.63;100.00
21960;BME280;11144;43.030;25.108;2023-05-08T01:11:10;99308.91;;;11.64;100.00
21960;BME280;11144;43.030;25.108;2023-05-08T01:12:52;99310.63;;;11.65;100.00
21960;BME280;11144;43.030;25.108;2023-05-08T01:14:37;99306.94;;;11.69;100.00
21960;BME280;11144;43.030;25.108;2023-05-08T01:16:14;99307.81;;;11.69;100.00
21960;BME280;11144;43.030;25.108;2023-05-08T01:17:56;99312.38;;;11.66;100.00
21960;BME280;11144;43.030;25.108;2023-05-08T01:20:03;99314.31;;;11.61;100.00
21960;BME280;11144;43.030;25.108;2023-05-08T01:21:43;99320.56;;;11.58;100.00
21960;BME280;11144;43.030;25.108;2023-05-08T01:25:50;99315.66;;;11.49;100.00
21960;BME280;11144;43.030;25.108;2023-05-08T01:27:44;99313.06;;;11.48;100.00
21960;BME280;11144;43.030;25.108;2023-05-08T01:29:43;99319.31;;;11.45;100.00
21960;BME280;11144;43.030;25.108;2023-05-08T01:31:23;99322.91;;;11.44;100.00
21960;BME280;11144;43.030;25.108;2023-05-08T01:33:01;99310.53;;;11.45;100.00
21960;BME280;11144;43.030;25.108;2023-05-08T01:34:45;99325.56;;;11.44;100.00
21960;BME280;11144;43.030;25.108;2023-05-08T01:36:25;99318.50;;;11.45;100.00
21960;BME280;11144;43.030;25.108;2023-05-08T01:38:05;99319.09;;;11.51;100.00
21960;BME280;11144;43.030;25.108;2023-05-08T01:39:43;99322.41;;;11.56;100.00
21960;BME280;11144;43.030;25.108;2023-05-08T01:41:24;99315.19;;;11.61;100.00
21960;BME280;11144;43.030;25.108;2023-05-08T01:43:05;99314.28;;;11.62;100.00
21960;BME280;11144;43.030;25.108;2023-05-08T01:44:44;99313.44;;;11.60;100.00
21960;BME280;11144;43.030;25.108;2023-05-08T01:46:23;99311.63;;;11.62;100.00
21960;BME280;11144;43.030;25.108;2023-05-08T01:48:03;99316.03;;;11.62;100.00
21960;BME280;11144;43.030;25.108;2023-05-08T01:49:39;99311.81;;;11.56;100.00
21960;BME280;11144;43.030;25.108;2023-05-08T01:51:18;99311.09;;;11.53;100.00
21960;BME280;11144;43.030;25.108;2023-05-08T01:53:04;99309.38;;;11.52;100.00
21960;BME280;11144;43.030;25.108;2023-05-08T01:54:43;99313.91;;;11.48;100.00
21960;BME280;11144;43.030;25.108;2023-05-08T01:56:21;99310.47;;;11.46;100.00
21960;BME280;11144;43.030;25.108;2023-05-08T01:57:57;99308.72;;;11.45;100.00
21960;BME280;11144;43.030;25.108;2023-05-08T01:59:32;99300.00;;;11.43;100.00
21960;BME280;11144;43.030;25.108;2023-05-08T02:01:08;99306.22;;;11.42;100.00
21960;BME280;11144;43.030;25.108;2023-05-08T02:02:43;99302.59;;;11.45;100.00
21960;BME280;11144;43.030;25.108;2023-05-08T02:04:19;99311.25;;;11.48;100.00
21960;BME280;11144;43.030;25.108;2023-05-08T02:05:54;99307.91;;;11.45;100.00
21960;BME280;11144;43.030;25.108;2023-05-08T02:07:30;99306.91;;;11.47;100.00
21960;BME280;11144;43.030;25.108;2023-05-08T02:09:07;99301.72;;;11.44;100.00
21960;BME280;11144;43.030;25.108;2023-05-08T02:10:42;99308.72;;;11.45;100.00
21960;BME280;11144;43.030;25.108;2023-05-08T02:12:16;99310.72;;;11.40;100.00
21960;BME280;11144;43.030;25.108;2023-05-08T02:13:51;99310.81;;;11.37;100.00
21960;BME280;11144;43.030;25.108;2023-05-08T02:15:26;99312.81;;;11.32;100.00
21960;BME280;11144;43.030;25.108;2023-05-08T02:17:01;99298.19;;;11.22;100.00
21960;BME280;11144;43.030;25.108;2023-05-08T02:18:37;99303.59;;;11.19;100.00
21960;BME280;11144;43.030;25.108;2023-05-08T02:20:13;99310.75;;;11.17;100.00
21960;BME280;11144;43.030;25.108;2023-05-08T02:21:49;99310.75;;;11.17;100.00
21960;BME280;11144;43.030;25.108;2023-05-08T02:23:24;99310.88;;;11.14;100.00
21960;BME280;11144;43.030;25.108;2023-05-08T02:24:58;99318.69;;;11.17;100.00
21960;BME280;11144;43.030;25.108;2023-05-08T02:26:34;99309.16;;;11.13;100.00
21960;BME280;11144;43.030;25.108;2023-05-08T02:28:09;99313.88;;;11.05;100.00
21960;BME280;11144;43.030;25.108;2023-05-08T02:29:43;99300.03;;;10.97;100.00
21960;BME280;11144;43.030;25.108;2023-05-08T02:31:18;99308.06;;;10.96;100.00
21960;BME280;11144;43.030;25.108;2023-05-08T02:32:52;99308.91;;;10.96;100.00
21960;BME280;11144;43.030;25.108;2023-05-08T02:34:31;99305.34;;;10.97;100.00
21960;BME280;11144;43.030;25.108;2023-05-08T02:36:06;99310.63;;;10.97;100.00
21960;BME280;11144;43.030;25.108;2023-05-08T02:37:42;99304.50;;;10.97;100.00
21960;BME280;11144;43.030;25.108;2023-05-08T02:39:17;99310.53;;;11.00;100.00
21960;BME280;11144;43.030;25.108;2023-05-08T02:40:54;99306.94;;;11.01;100.00
21960;BME280;11144;43.030;25.108;2023-05-08T02:42:29;99312.25;;;11.01;100.00
21960;BME280;11144;43.030;25.108;2023-05-08T02:44:02;99313.22;;;10.99;100.00
21960;BME280;11144;43.030;25.108;2023-05-08T02:45:40;99307.09;;;10.98;100.00
21960;BME280;11144;43.030;25.108;2023-05-08T02:47:20;99299.94;;;11.00;100.00
21960;BME280;11144;43.030;25.108;2023-05-08T02:48:57;99311.34;;;11.02;100.00
21960;BME280;11144;43.030;25.108;2023-05-08T02:50:37;99313.13;;;11.02;100.00
21960;BME280;11144;43.030;25.108;2023-05-08T02:52:18;99310.78;;;10.94;100.00
21960;BME280;11144;43.030;25.108;2023-05-08T02:53:58;99312.59;;;10.92;100.00
21960;BME280;11144;43.030;25.108;2023-05-08T02:55:39;99311.66;;;10.93;100.00
21960;BME280;11144;43.030;25.108;2023-05-08T02:57:20;99312.50;;;10.95;100.00
21960;BME280;11144;43.030;25.108;2023-05-08T02:59:12;99301.91;;;10.95;100.00
21960;BME280;11144;43.030;25.108;2023-05-08T03:00:48;99307.41;;;10.89;100.00
21960;BME280;11144;43.030;25.108;2023-05-08T03:02:30;99305.81;;;10.85;100.00
21960;BME280;11144;43.030;25.108;2023-05-08T03:04:07;99318.25;;;10.83;100.00
21960;BME280;11144;43.030;25.108;2023-05-08T03:05:45;99307.72;;;10.82;100.00
21960;BME280;11144;43.030;25.108;2023-05-08T03:07:24;99314.78;;;10.81;100.00
21960;BME280;11144;43.030;25.108;2023-05-08T03:09:00;99315.88;;;10.76;100.00
21960;BME280;11144;43.030;25.108;2023-05-08T03:10:35;99313.53;;;10.68;100.00
21960;BME280;11144;43.030;25.108;2023-05-08T03:12:13;99318.91;;;10.65;100.00
21960;BME280;11144;43.030;25.108;2023-05-08T03:13:50;99317.50;;;10.55;100.00
21960;BME280;11144;43.030;25.108;2023-05-08T03:15:28;99317.84;;;10.46;100.00
21960;BME280;11144;43.030;25.108;2023-05-08T03:17:06;99316.09;;;10.45;100.00
21960;BME280;11144;43.030;25.108;2023-05-08T03:18:44;99322.38;;;10.43;100.00
21960;BME280;11144;43.030;25.108;2023-05-08T03:20:18;99316.53;;;10.33;100.00
21960;BME280;11144;43.030;25.108;2023-05-08T03:21:53;99327.31;;;10.27;100.00
21960;BME280;11144;43.030;25.108;2023-05-08T03:23:30;99330.78;;;10.29;100.00
21960;BME280;11144;43.030;25.108;2023-05-08T03:25:07;99321.81;;;10.33;100.00
21960;BME280;11144;43.030;25.108;2023-05-08T03:26:43;99322.69;;;10.33;100.00
21960;BME280;11144;43.030;25.108;2023-05-08T03:28:18;99327.94;;;10.35;100.00
21960;BME280;11144;43.030;25.108;2023-05-08T03:29:53;99333.13;;;10.36;100.00
21960;BME280;11144;43.030;25.108;2023-05-08T03:31:31;99334.84;;;10.39;100.00
21960;BME280;11144;43.030;25.108;2023-05-08T03:33:04;99325.06;;;10.41;100.00
21960;BME280;11144;43.030;25.108;2023-05-08T03:34:39;99331.97;;;10.45;100.00
21960;BME280;11144;43.030;25.108;2023-05-08T03:36:13;99334.72;;;10.42;100.00
21960;BME280;11144;43.030;25.108;2023-05-08T03:37:46;99330.34;;;10.41;100.00
21960;BME280;11144;43.030;25.108;2023-05-08T03:39:21;99333.03;;;10.39;100.00
21960;BME280;11144;43.030;25.108;2023-05-08T03:40:55;99336.75;;;10.34;100.00
21960;BME280;11144;43.030;25.108;2023-05-08T03:42:31;99341.31;;;10.30;100.00
21960;BME280;11144;43.030;25.108;2023-05-08T03:44:04;99318.25;;;10.09;100.00
21960;BME280;11144;43.030;25.108;2023-05-08T03:45:39;99351.28;;;10.22;100.00
21960;BME280;11144;43.030;25.108;2023-05-08T03:47:11;99343.50;;;10.18;100.00
21960;BME280;11144;43.030;25.108;2023-05-08T03:48:45;99335.75;;;10.12;100.00
21960;BME280;11144;43.030;25.108;2023-05-08T03:50:20;99341.97;;;10.11;100.00
21960;BME280;11144;43.030;25.108;2023-05-08T03:51:53;99349.09;;;10.09;100.00
21960;BME280;11144;43.030;25.108;2023-05-08T03:53:28;99343.91;;;10.06;100.00
21960;BME280;11144;43.030;25.108;2023-05-08T03:55:04;99346.50;;;10.07;100.00
21960;BME280;11144;43.030;25.108;2023-05-08T03:56:37;99348.19;;;10.10;100.00
21960;BME280;11144;43.030;25.108;2023-05-08T03:58:18;99345.50;;;10.11;100.00
21960;BME280;11144;43.030;25.108;2023-05-08T03:59:59;99359.25;;;10.21;100.00
21960;BME280;11144;43.030;25.108;2023-05-08T04:01:48;99355.50;;;10.28;100.00
21960;BME280;11144;43.030;25.108;2023-05-08T04:03:28;99354.19;;;10.39;100.00
21960;BME280;11144;43.030;25.108;2023-05-08T04:05:16;99352.91;;;10.51;100.00
21960;BME280;11144;43.030;25.108;2023-05-08T04:07:07;99346.44;;;10.60;100.00
21960;BME280;11144;43.030;25.108;2023-05-08T04:08:51;99350.41;;;10.71;100.00
21960;BME280;11144;43.030;25.108;2023-05-08T04:10:30;99346.00;;;10.72;100.00
21960;BME280;11144;43.030;25.108;2023-05-08T04:12:08;99362.19;;;10.87;100.00
21960;BME280;11144;43.030;25.108;2023-05-08T04:13:48;99356.53;;;10.96;100.00
21960;BME280;11144;43.030;25.108;2023-05-08T04:15:25;99352.84;;;11.00;100.00
21960;BME280;11144;43.030;25.108;2023-05-08T04:17:02;99352.75;;;11.03;100.00
21960;BME280;11144;43.030;25.108;2023-05-08T04:18:45;99349.06;;;11.07;100.00
21960;BME280;11144;43.030;25.108;2023-05-08T04:20:20;99350.78;;;11.08;100.00
21960;BME280;11144;43.030;25.108;2023-05-08T04:21:58;99353.03;;;11.19;100.00
21960;BME280;11144;43.030;25.108;2023-05-08T04:23:34;99351.84;;;11.27;100.00
21960;BME280;11144;43.030;25.108;2023-05-08T04:25:09;99355.78;;;11.39;100.00
21960;BME280;11144;43.030;25.108;2023-05-08T04:26:47;99359.75;;;11.50;100.00
21960;BME280;11144;43.030;25.108;2023-05-08T04:28:21;99357.47;;;11.64;100.00
21960;BME280;11144;43.030;25.108;2023-05-08T04:29:55;99357.81;;;11.77;100.00
21960;BME280;11144;43.030;25.108;2023-05-08T04:31:29;99353.63;;;11.93;100.00
21960;BME280;11144;43.030;25.108;2023-05-08T04:33:03;99352.25;;;12.04;100.00
21960;BME280;11144;43.030;25.108;2023-05-08T04:34:39;99352.75;;;12.14;100.00
21960;BME280;11144;43.030;25.108;2023-05-08T04:36:12;99352.47;;;12.20;100.00
21960;BME280;11144;43.030;25.108;2023-05-08T04:37:48;99352.47;;;12.20;100.00
21960;BME280;11144;43.030;25.108;2023-05-08T04:39:22;99346.06;;;12.25;100.00
21960;BME280;11144;43.030;25.108;2023-05-08T04:40:55;99340.38;;;12.34;100.00
21960;BME280;11144;43.030;25.108;2023-05-08T04:42:30;99351.13;;;12.51;100.00
21960;BME280;11144;43.030;25.108;2023-05-08T04:44:05;99346.50;;;12.56;100.00
21960;BME280;11144;43.030;25.108;2023-05-08T04:45:38;99345.94;;;12.68;100.00
21960;BME280;11144;43.030;25.108;2023-05-08T04:47:12;99347.41;;;12.75;100.00
21960;BME280;11144;43.030;25.108;2023-05-08T04:48:45;99347.28;;;12.78;100.00
21960;BME280;11144;43.030;25.108;2023-05-08T04:50:18;99339.81;;;12.86;100.00
21960;BME280;11144;43.030;25.108;2023-05-08T04:51:52;99341.28;;;12.93;100.00
21960;BME280;11144;43.030;25.108;2023-05-08T04:53:25;99342.75;;;13.00;100.00
21960;BME280;11144;43.030;25.108;2023-05-08T04:54:58;99344.28;;;13.06;100.00
21960;BME280;11144;43.030;25.108;2023-05-08T04:56:33;99342.59;;;13.03;100.00
21960;BME280;11144;43.030;25.108;2023-05-08T04:58:09;99350.63;;;13.02;100.00
21960;BME280;11144;43.030;25.108;2023-05-08T04:59:42;99336.38;;;13.04;100.00
21960;BME280;11144;43.030;25.108;2023-05-08T05:01:14;99334.44;;;13.08;100.00
21960;BME280;11144;43.030;25.108;2023-05-08T05:02:48;99338.97;;;13.06;100.00
21960;BME280;11144;43.030;25.108;2023-05-08T05:04:21;99344.03;;;13.10;100.00
21960;BME280;11144;43.030;25.108;2023-05-08T05:05:59;99344.72;;;13.15;100.00
21960;BME280;11144;43.030;25.108;2023-05-08T05:07:32;99350.53;;;13.23;100.00
21960;BME280;11144;43.030;25.108;2023-05-08T05:09:06;99342.94;;;13.34;100.00
21960;BME280;11144;43.030;25.108;2023-05-08T05:10:40;99347.38;;;13.52;100.00
21960;BME280;11144;43.030;25.108;2023-05-08T05:12:13;99348.50;;;13.65;100.00
21960;BME280;11144;43.030;25.108;2023-05-08T05:13:48;99345.25;;;13.77;100.00
21960;BME280;11144;43.030;25.108;2023-05-08T05:15:21;99339.03;;;13.96;100.00
21960;BME280;11144;43.030;25.108;2023-05-08T05:16:55;99335.47;;;14.14;100.00
21960;BME280;11144;43.030;25.108;2023-05-08T05:18:29;99335.31;;;14.35;100.00
21960;BME280;11144;43.030;25.108;2023-05-08T05:20:03;99324.88;;;14.48;100.00
21960;BME280;11144;43.030;25.108;2023-05-08T05:21:36;99327.69;;;14.62;100.00
21960;BME280;11144;43.030;25.108;2023-05-08T05:23:10;99328.44;;;14.81;100.00
21960;BME280;11144;43.030;25.108;2023-05-08T05:24:43;99327.63;;;14.96;100.00
21960;BME280;11144;43.030;25.108;2023-05-08T05:26:17;99326.81;;;15.11;100.00
21960;BME280;11144;43.030;25.108;2023-05-08T05:27:50;99329.09;;;15.34;100.00
21960;BME280;11144;43.030;25.108;2023-05-08T05:29:25;99329.66;;;15.56;100.00
21960;BME280;11144;43.030;25.108;2023-05-08T05:30:59;99326.31;;;15.68;100.00
21960;BME280;11144;43.030;25.108;2023-05-08T05:32:33;99326.81;;;15.90;100.00
21960;BME280;11144;43.030;25.108;2023-05-08T05:34:07;99322.38;;;16.04;100.00
21960;BME280;11144;43.030;25.108;2023-05-08T05:35:40;99323.75;;;16.11;100.00
21960;BME280;11144;43.030;25.108;2023-05-08T05:37:14;99323.84;;;16.39;100.00
21960;BME280;11144;43.030;25.108;2023-05-08T05:38:47;99315.22;;;16.50;100.00
21960;BME280;11144;43.030;25.108;2023-05-08T05:40:19;99316.97;;;16.51;100.00
21960;BME280;11144;43.030;25.108;2023-05-08T05:41:53;99317.38;;;16.59;100.00
21960;BME280;11144;43.030;25.108;2023-05-08T05:43:26;99320.28;;;16.84;100.00
21960;BME280;11144;43.030;25.108;2023-05-08T05:45:01;99314.38;;;17.21;100.00
21960;BME280;11144;43.030;25.108;2023-05-08T05:46:35;99317.19;;;17.60;100.00
21960;BME280;11144;43.030;25.108;2023-05-08T05:48:10;99316.53;;;17.97;100.00
21960;BME280;11144;43.030;25.108;2023-05-08T05:49:45;99312.88;;;17.98;100.00
21960;BME280;11144;43.030;25.108;2023-05-08T05:51:19;99305.22;;;18.06;100.00
21960;BME280;11144;43.030;25.108;2023-05-08T05:52:52;99303.09;;;18.11;100.00
21960;BME280;11144;43.030;25.108;2023-05-08T05:54:26;99302.22;;;18.11;100.00
21960;BME280;11144;43.030;25.108;2023-05-08T05:55:59;99300.34;;;18.25;100.00
21960;BME280;11144;43.030;25.108;2023-05-08T05:57:33;99295.91;;;18.38;100.00
21960;BME280;11144;43.030;25.108;2023-05-08T05:59:08;99295.50;;;18.44;100.00
21960;BME280;11144;43.030;25.108;2023-05-08T06:00:44;99294.88;;;18.78;100.00
21960;BME280;11144;43.030;25.108;2023-05-08T06:02:18;99295.50;;;19.19;100.00
21960;BME280;11144;43.030;25.108;2023-05-08T06:03:52;99298.06;;;19.46;100.00
21960;BME280;11144;43.030;25.108;2023-05-08T06:05:25;99301.59;;;19.82;100.00
21960;BME280;11144;43.030;25.108;2023-05-08T06:07:02;99296.97;;;20.21;100.00
21960;BME280;11144;43.030;25.108;2023-05-08T06:08:35;99296.63;;;20.71;100.00
21960;BME280;11144;43.030;25.108;2023-05-08T06:10:09;99296.25;;;21.21;100.00
21960;BME280;11144;43.030;25.108;2023-05-08T06:11:42;99299.91;;;21.64;100.00
21960;BME280;11144;43.030;25.108;2023-05-08T06:13:16;99299.91;;;21.86;100.00
21960;BME280;11144;43.030;25.108;2023-05-08T06:14:51;99293.50;;;21.98;100.00
21960;BME280;11144;43.030;25.108;2023-05-08T06:16:26;99285.81;;;22.25;100.00
21960;BME280;11144;43.030;25.108;2023-05-08T06:17:59;99280.31;;;22.47;100.00
21960;BME280;11144;43.030;25.108;2023-05-08T06:19:31;99275.28;;;22.74;100.00
21960;BME280;11144;43.030;25.108;2023-05-08T06:21:05;99269.91;;;22.74;100.00
21960;BME280;11144;43.030;25.108;2023-05-08T06:22:39;99277.28;;;22.20;100.00
21960;BME280;11144;43.030;25.108;2023-05-08T06:24:13;99275.06;;;22.14;100.00
21960;BME280;11144;43.030;25.108;2023-05-08T06:25:46;99264.44;;;22.12;100.00
21960;BME280;11144;43.030;25.108;2023-05-08T06:27:20;99275.16;;;21.70;100.00
21960;BME280;11144;43.030;25.108;2023-05-08T06:28:54;99271.50;;;21.82;100.00
21960;BME280;11144;43.030;25.108;2023-05-08T06:30:27;99260.69;;;21.93;100.00
21960;BME280;11144;43.030;25.108;2023-05-08T06:32:03;99257.00;;;22.05;100.00
21960;BME280;11144;43.030;25.108;2023-05-08T06:33:36;99260.50;;;22.37;100.00
21960;BME280;11144;43.030;25.108;2023-05-08T06:35:09;99257.72;;;22.79;100.00
21960;BME280;11144;43.030;25.108;2023-05-08T06:36:43;99257.41;;;23.24;100.00
21960;BME280;11144;43.030;25.108;2023-05-08T06:38:16;99264.25;;;23.67;100.00
21960;BME280;11144;43.030;25.108;2023-05-08T06:39:50;99264.91;;;24.09;100.00
21960;BME280;11144;43.030;25.108;2023-05-08T06:41:42;99264.09;;;24.27;100.00
21960;BME280;11144;43.030;25.108;2023-05-08T06:43:16;99258.41;;;24.11;100.00
21960;BME280;11144;43.030;25.108;2023-05-08T06:44:49;99258.81;;;24.35;100.00
21960;BME280;11144;43.030;25.108;2023-05-08T06:46:24;99256.69;;;24.48;100.00
21960;BME280;11144;43.030;25.108;2023-05-08T06:47:59;99264.38;;;24.62;100.00
21960;BME280;11144;43.030;25.108;2023-05-08T06:49:32;99259.25;;;24.50;100.00
21960;BME280;11144;43.030;25.108;2023-05-08T06:51:05;99256.97;;;24.64;100.00
21960;BME280;11144;43.030;25.108;2023-05-08T06:52:39;99256.50;;;24.88;100.00
21960;BME280;11144;43.030;25.108;2023-05-08T06:54:13;99259.13;;;25.16;100.00
21960;BME280;11144;43.030;25.108;2023-05-08T06:55:46;99256.50;;;25.34;100.00
21960;BME280;11144;43.030;25.108;2023-05-08T06:57:19;99259.19;;;25.70;100.00
21960;BME280;11144;43.030;25.108;2023-05-08T06:58:53;99250.22;;;25.87;100.00
21960;BME280;11144;43.030;25.108;2023-05-08T07:00:38;99249.34;;;25.97;100.00
21960;BME280;11144;43.030;25.108;2023-05-08T07:02:11;99254.66;;;25.61;100.00
21960;BME280;11144;43.030;25.108;2023-05-08T07:03:48;99255.13;;;25.20;100.00
21960;BME280;11144;43.030;25.108;2023-05-08T07:05:22;99248.19;;;25.08;100.00
21960;BME280;11144;43.030;25.108;2023-05-08T07:06:55;99254.38;;;24.82;100.00
21960;BME280;11144;43.030;25.108;2023-05-08T07:08:28;99243.28;;;24.75;100.00
21960;BME280;11144;43.030;25.108;2023-05-08T07:10:03;99236.69;;;24.87;100.00
21960;BME280;11144;43.030;25.108;2023-05-08T07:11:38;99242.84;;;24.89;100.00
21960;BME280;11144;43.030;25.108;2023-05-08T07:13:11;99239.28;;;24.79;100.00
21960;BME280;11144;43.030;25.108;2023-05-08T07:14:45;99239.31;;;24.60;100.00
21960;BME280;11144;43.030;25.108;2023-05-08T07:16:18;99246.16;;;24.45;100.00
21960;BME280;11144;43.030;25.108;2023-05-08T07:17:52;99234.63;;;24.43;100.00
21960;BME280;11144;43.030;25.108;2023-05-08T07:19:26;99245.88;;;24.67;100.00
21960;BME280;11144;43.030;25.108;2023-05-08T07:21:00;99235.22;;;25.02;100.00
21960;BME280;11144;43.030;25.108;2023-05-08T07:22:33;99236.00;;;25.31;100.00
21960;BME280;11144;43.030;25.108;2023-05-08T07:24:06;99239.28;;;25.62;100.00
21960;BME280;11144;43.030;25.108;2023-05-08T07:25:40;99225.75;;;25.79;100.00
21960;BME280;11144;43.030;25.108;2023-05-08T07:27:13;99229.38;;;25.98;100.00
21960;BME280;11144;43.030;25.108;2023-05-08T07:28:46;99232.72;;;26.09;100.00
21960;BME280;11144;43.030;25.108;2023-05-08T07:30:21;99236.50;;;26.34;100.00
21960;BME280;11144;43.030;25.108;2023-05-08T07:31:55;99228.88;;;26.55;100.00
21960;BME280;11144;43.030;25.108;2023-05-08T07:33:28;99234.88;;;26.84;100.00
21960;BME280;11144;43.030;25.108;2023-05-08T07:35:04;99239.59;;;26.74;100.00
21960;BME280;11144;43.030;25.108;2023-05-08T07:36:41;99233.91;;;26.50;100.00
21960;BME280;11144;43.030;25.108;2023-05-08T07:38:14;99230.91;;;26.53;100.00
21960;BME280;11144;43.030;25.108;2023-05-08T07:39:48;99230.53;;;26.65;100.00
21960;BME280;11144;43.030;25.108;2023-05-08T07:41:21;99233.06;;;26.92;100.00
21960;BME280;11144;43.030;25.108;2023-05-08T07:42:54;99226.91;;;27.08;100.00
21960;BME280;11144;43.030;25.108;2023-05-08T07:44:27;99229.41;;;27.01;100.00
21960;BME280;11144;43.030;25.108;2023-05-08T07:46:17;99224.22;;;27.16;100.00
21960;BME280;11144;43.030;25.108;2023-05-08T07:47:54;99222.16;;;27.35;100.00
21960;BME280;11144;43.030;25.108;2023-05-08T07:49:28;99225.00;;;27.26;100.00
21960;BME280;11144;43.030;25.108;2023-05-08T07:51:03;99225.06;;;27.42;100.00
21960;BME280;11144;43.030;25.108;2023-05-08T07:52:36;99216.25;;;27.40;100.00
21960;BME280;11144;43.030;25.108;2023-05-08T07:54:09;99218.00;;;27.57;100.00
21960;BME280;11144;43.030;25.108;2023-05-08T07:55:42;99215.19;;;27.07;100.00
21960;BME280;11144;43.030;25.108;2023-05-08T07:57:15;99215.09;;;26.66;100.00
21960;BME280;11144;43.030;25.108;2023-05-08T07:58:49;99217.97;;;26.29;100.00
21960;BME280;11144;43.030;25.108;2023-05-08T08:00:22;99215.34;;;26.02;100.00
21960;BME280;11144;43.030;25.108;2023-05-08T08:01:55;99212.03;;;26.26;100.00
21960;BME280;11144;43.030;25.108;2023-05-08T08:03:28;99216.97;;;26.48;100.00
21960;BME280;11144;43.030;25.108;2023-05-08T08:05:02;99215.81;;;26.76;100.00
21960;BME280;11144;43.030;25.108;2023-05-08T08:06:38;99222.22;;;27.18;98.55
21960;BME280;11144;43.030;25.108;2023-05-08T08:08:11;99217.66;;;27.60;100.00
21960;BME280;11144;43.030;25.108;2023-05-08T08:09:45;99219.78;;;27.82;100.00
21960;BME280;11144;43.030;25.108;2023-05-08T08:11:18;99222.06;;;28.10;99.00
21960;BME280;11144;43.030;25.108;2023-05-08T08:12:51;99219.34;;;27.61;100.00
21960;BME280;11144;43.030;25.108;2023-05-08T08:14:25;99218.09;;;27.81;100.00
21960;BME280;11144;43.030;25.108;2023-05-08T08:15:58;99209.31;;;28.03;98.66